createdAt,value
2018-12-25T00:00:06.703Z,102354.00
2018-12-25T00:02:53.930Z,102151.00
2018-12-25T00:05:41.195Z,102381.00
2018-12-25T00:08:28.464Z,102328.00
2018-12-25T00:11:15.715Z,102107.00
2018-12-25T00:14:03.129Z,102318.00
2018-12-25T00:16:50.374Z,102368.00
2018-12-25T00:19:37.667Z,102318.00
2018-12-25T00:22:24.868Z,102057.00
2018-12-25T00:24:52.658Z,102331.00
2018-12-25T00:27:39.862Z,102016.00
2018-12-25T00:30:27.101Z,102086.00
2018-12-25T00:33:14.319Z,102081.00
2018-12-25T00:36:01.568Z,102129.00
2018-12-25T00:38:42.023Z,102349.00
2018-12-25T00:41:29.272Z,102351.00
2018-12-25T00:44:16.503Z,102118.00
2018-12-25T00:47:03.798Z,102450.00
2018-12-25T00:49:50.987Z,102370.00
2018-12-25T00:54:47.128Z,102364.00
2018-12-25T00:57:14.904Z,102368.00
2018-12-25T00:59:42.690Z,102377.00
2018-12-25T01:02:10.473Z,102372.00
2018-12-25T01:04:38.210Z,102369.00
2018-12-25T01:07:05.988Z,102366.00
2018-12-25T01:09:33.776Z,102359.00
2018-12-25T01:12:01.688Z,102359.00
2018-12-25T01:14:29.442Z,102352.00
2018-12-25T01:16:57.177Z,102372.00
2018-12-25T01:19:25.089Z,102360.00
2018-12-25T01:21:52.797Z,102362.00
2018-12-25T01:24:20.725Z,102368.00
2018-12-25T01:26:48.566Z,102371.00
2018-12-25T01:29:16.333Z,102367.00
2018-12-25T01:31:44.042Z,102370.00
2018-12-25T01:34:11.886Z,102375.00
2018-12-25T01:36:39.653Z,102377.00
2018-12-25T01:39:07.407Z,102365.00
2018-12-25T01:41:35.243Z,102364.00
2018-12-25T01:44:03.103Z,102373.00
2018-12-25T01:46:30.832Z,102383.00
2018-12-25T01:48:58.562Z,102373.00
2018-12-25T01:51:26.313Z,102370.00
2018-12-25T01:53:54.074Z,102378.00
2018-12-25T01:56:21.953Z,102378.00
2018-12-25T01:58:49.732Z,102386.00
2018-12-25T02:01:17.608Z,102394.00
2018-12-25T02:03:45.370Z,102397.00
2018-12-25T02:06:13.201Z,102375.00
2018-12-25T02:08:40.928Z,102372.00
2018-12-25T02:11:08.641Z,102378.00
2018-12-25T02:13:36.419Z,102382.00
2018-12-25T02:16:06.955Z,102391.00
2018-12-25T02:18:34.687Z,102381.00
2018-12-25T02:21:02.525Z,102402.00
2018-12-25T02:23:30.228Z,102402.00
2018-12-25T02:25:57.984Z,102393.00
2018-12-25T02:28:25.685Z,102392.00
2018-12-25T02:30:53.479Z,102383.00
2018-12-25T02:33:21.213Z,102394.00
2018-12-25T02:35:48.946Z,102397.00
2018-12-25T02:38:16.714Z,102398.00
2018-12-25T02:40:44.573Z,102400.00
2018-12-25T02:43:12.311Z,102396.00
2018-12-25T02:45:40.084Z,102387.00
2018-12-25T02:48:07.815Z,102387.00
2018-12-25T02:50:35.618Z,102389.00
2018-12-25T02:53:03.409Z,102382.00
2018-12-25T02:55:31.157Z,102369.00
2018-12-25T02:58:18.412Z,102378.00
2018-12-25T03:00:46.621Z,102372.00
2018-12-25T03:03:14.419Z,102365.00
2018-12-25T03:05:42.316Z,102363.00
2018-12-25T03:08:10.023Z,102369.00
2018-12-25T03:10:37.726Z,102354.00
2018-12-25T03:13:05.443Z,102362.00
2018-12-25T03:15:33.151Z,102362.00
2018-12-25T03:18:00.901Z,102359.00
2018-12-25T03:20:28.666Z,102357.00
2018-12-25T03:22:56.413Z,102357.00
2018-12-25T03:25:24.169Z,102346.00
2018-12-25T03:27:51.954Z,102349.00
2018-12-25T03:30:19.736Z,102349.00
2018-12-25T03:32:47.502Z,102360.00
2018-12-25T03:35:15.245Z,102352.00
2018-12-25T03:37:43.119Z,102337.00
2018-12-25T03:40:10.856Z,102352.00
2018-12-25T03:42:38.600Z,102339.00
2018-12-25T03:45:06.310Z,102348.00
2018-12-25T03:47:34.072Z,102342.00
2018-12-25T03:50:10.466Z,102346.00
2018-12-25T03:52:31.483Z,102360.00
2018-12-25T03:54:59.229Z,102342.00
2018-12-25T03:57:27.008Z,102354.00
2018-12-25T03:59:54.727Z,102337.00
2018-12-25T04:02:22.450Z,102340.00
2018-12-25T04:05:09.648Z,102329.00
2018-12-25T04:07:37.368Z,102000.00
2018-12-25T04:10:05.094Z,102341.00
2018-12-25T04:12:32.805Z,102334.00
2018-12-25T04:15:00.496Z,102341.00
2018-12-25T04:17:28.273Z,102341.00
2018-12-25T04:19:56.002Z,102340.00
2018-12-25T04:22:24.034Z,102328.00
2018-12-25T04:24:51.806Z,102332.00
2018-12-25T04:27:19.563Z,102333.00
2018-12-25T04:29:47.318Z,102340.00
2018-12-25T04:32:15.034Z,102324.00
2018-12-25T04:34:42.775Z,102325.00
2018-12-25T04:37:10.482Z,102329.00
2018-12-25T04:39:45.735Z,102329.00
2018-12-25T04:42:13.460Z,102325.00
2018-12-25T04:44:41.226Z,102329.00
2018-12-25T04:47:08.969Z,102337.00
2018-12-25T04:49:36.694Z,102319.00
2018-12-25T04:52:04.469Z,102321.00
2018-12-25T04:54:32.247Z,102332.00
2018-12-25T04:56:59.998Z,102316.00
2018-12-25T04:59:27.753Z,102330.00
2018-12-25T05:01:55.508Z,102323.00
2018-12-25T05:04:23.452Z,102320.00
2018-12-25T05:06:51.148Z,102322.00
2018-12-25T05:09:18.931Z,102316.00
2018-12-25T05:11:46.702Z,102320.00
2018-12-25T05:14:14.429Z,102312.00
2018-12-25T05:16:42.165Z,102311.00
2018-12-25T05:19:09.923Z,102323.00
2018-12-25T05:21:37.640Z,102327.00
2018-12-25T05:24:05.539Z,102332.00
2018-12-25T05:26:33.303Z,102339.00
2018-12-25T05:29:01.072Z,102332.00
2018-12-25T05:31:28.838Z,102341.00
2018-12-25T05:33:56.561Z,102333.00
2018-12-25T05:36:24.304Z,102332.00
2018-12-25T05:38:52.115Z,102334.00
2018-12-25T05:41:20.004Z,102347.00
2018-12-25T05:43:47.625Z,102351.00
2018-12-25T05:46:15.368Z,102330.00
2018-12-25T05:48:43.156Z,102340.00
2018-12-25T05:51:10.864Z,102332.00
2018-12-25T05:53:38.630Z,102332.00
2018-12-25T05:56:06.459Z,102332.00
2018-12-25T05:58:37.201Z,102338.00
2018-12-25T06:01:05.081Z,102340.00
2018-12-25T06:03:32.776Z,102337.00
2018-12-25T06:06:00.481Z,102322.00
2018-12-25T06:08:28.269Z,102330.00
2018-12-25T06:10:56.085Z,102330.00
2018-12-25T06:13:24.009Z,102326.00
2018-12-25T06:15:51.812Z,102317.00
2018-12-25T06:18:19.588Z,102327.00
2018-12-25T06:20:54.918Z,102326.00
2018-12-25T06:23:16.926Z,102333.00
2018-12-25T06:25:44.654Z,102331.00
2018-12-25T06:28:12.424Z,102336.00
2018-12-25T06:30:40.179Z,102331.00
2018-12-25T06:33:07.951Z,102327.00
2018-12-25T06:35:35.768Z,102329.00
2018-12-25T06:38:03.485Z,102345.00
2018-12-25T06:40:31.274Z,102336.00
2018-12-25T06:42:58.994Z,102329.00
2018-12-25T06:45:26.739Z,102339.00
2018-12-25T06:47:54.533Z,102336.00
2018-12-25T06:50:41.976Z,102334.00
2018-12-25T06:53:18.909Z,102345.00
2018-12-25T06:55:48.286Z,102343.00
2018-12-25T06:58:16.066Z,102342.00
2018-12-25T07:00:43.865Z,102330.00
2018-12-25T07:03:11.624Z,102332.00
2018-12-25T07:05:39.371Z,102326.00
2018-12-25T07:08:07.971Z,102321.00
2018-12-25T07:10:35.859Z,102326.00
2018-12-25T07:13:03.571Z,102312.00
2018-12-25T07:15:33.232Z,102317.00
2018-12-25T07:18:01.000Z,102315.00
2018-12-25T07:20:28.920Z,102308.00
2018-12-25T07:22:56.864Z,102314.00
2018-12-25T07:25:24.636Z,102308.00
2018-12-25T07:27:52.354Z,102322.00
2018-12-25T07:30:20.128Z,102317.00
2018-12-25T07:32:47.873Z,102313.00
2018-12-25T07:35:15.674Z,102314.00
2018-12-25T07:37:43.473Z,102318.00
2018-12-25T07:40:11.198Z,102322.00
2018-12-25T07:42:47.375Z,102314.00
2018-12-25T07:45:15.207Z,102313.00
2018-12-25T07:47:42.921Z,102318.00
2018-12-25T07:50:10.745Z,102315.00
2018-12-25T07:52:38.485Z,102320.00
2018-12-25T07:55:06.296Z,102314.00
2018-12-25T07:57:34.404Z,102318.00
2018-12-25T08:00:02.182Z,102320.00
2018-12-25T08:02:29.973Z,102306.00
2018-12-25T08:04:57.738Z,102318.00
2018-12-25T08:07:25.539Z,102312.00
2018-12-25T08:09:53.334Z,102283.00
2018-12-25T08:12:21.083Z,102314.00
2018-12-25T08:14:50.456Z,102310.00
2018-12-25T08:17:18.176Z,102310.00
2018-12-25T08:19:46.642Z,102302.00
2018-12-25T08:22:16.231Z,102308.00
2018-12-25T08:24:46.782Z,102325.00
2018-12-25T08:27:14.606Z,102303.00
2018-12-25T08:29:42.270Z,102304.00
2018-12-25T08:32:10.381Z,102305.00
2018-12-25T08:34:38.176Z,102313.00
2018-12-25T08:37:05.949Z,102328.00
2018-12-25T08:39:33.846Z,102330.00
2018-12-25T08:42:01.543Z,102332.00
2018-12-25T08:44:29.950Z,102338.00
2018-12-25T08:47:02.623Z,102343.00
2018-12-25T08:49:27.448Z,102353.00
2018-12-25T08:51:55.194Z,102348.00
2018-12-25T08:54:22.946Z,102354.00
2018-12-25T08:56:50.693Z,102354.00
2018-12-25T08:59:18.529Z,102357.00
2018-12-25T09:01:46.267Z,102370.00
2018-12-25T09:04:14.048Z,102373.00
2018-12-25T09:06:43.272Z,102355.00
2018-12-25T09:09:11.127Z,102354.00
2018-12-25T09:11:38.944Z,102350.00
2018-12-25T09:14:06.807Z,102342.00
2018-12-25T09:16:40.430Z,102356.00
2018-12-25T09:19:08.276Z,102355.00
2018-12-25T09:21:37.249Z,102353.00
2018-12-25T09:24:05.039Z,102345.00
2018-12-25T09:26:32.888Z,102349.00
2018-12-25T09:29:00.754Z,102342.00
2018-12-25T09:31:30.056Z,102338.00
2018-12-25T09:33:57.818Z,102337.00
2018-12-25T09:36:25.618Z,102335.00
2018-12-25T09:38:53.421Z,102335.00
2018-12-25T09:41:21.192Z,102334.00
2018-12-25T09:43:48.970Z,102332.00
2018-12-25T09:46:16.770Z,102344.00
2018-12-25T09:48:44.533Z,102348.00
2018-12-25T09:51:12.296Z,102345.00
2018-12-25T09:53:40.140Z,102338.00
2018-12-25T09:56:07.952Z,102335.00
2018-12-25T09:58:35.800Z,102344.00
2018-12-25T10:01:03.710Z,102340.00
2018-12-25T10:03:31.493Z,102335.00
2018-12-25T10:05:59.297Z,102336.00
2018-12-25T10:08:27.116Z,102336.00
2018-12-25T10:10:54.957Z,102333.00
2018-12-25T10:13:27.868Z,102342.00
2018-12-25T10:15:55.688Z,102337.00
2018-12-25T10:18:23.943Z,102342.00
2018-12-25T10:20:51.772Z,102339.00
2018-12-25T10:23:19.640Z,102331.00
2018-12-25T10:25:47.529Z,102328.00
2018-12-25T10:28:15.311Z,102340.00
2018-12-25T10:30:43.229Z,102327.00
2018-12-25T10:33:11.036Z,102332.00
2018-12-25T10:35:38.894Z,102320.00
2018-12-25T10:38:06.668Z,102315.00
2018-12-25T10:40:34.550Z,102315.00
2018-12-25T10:43:02.429Z,102310.00
2018-12-25T10:45:30.258Z,102302.00
2018-12-25T10:47:58.038Z,102304.00
2018-12-25T10:50:25.947Z,102306.00
2018-12-25T10:52:53.753Z,102301.00
2018-12-25T10:55:21.527Z,102297.00
2018-12-25T10:57:49.376Z,102286.00
2018-12-25T11:00:17.197Z,102277.00
2018-12-25T11:02:45.012Z,102274.00
2018-12-25T11:05:12.818Z,102265.00
2018-12-25T11:07:40.675Z,102271.00
2018-12-25T11:10:11.456Z,102282.00
2018-12-25T11:12:39.288Z,102282.00
2018-12-25T11:15:07.336Z,102280.00
2018-12-25T11:17:35.244Z,102277.00
2018-12-25T11:20:11.226Z,102272.00
2018-12-25T11:22:32.952Z,102271.00
2018-12-25T11:25:00.747Z,102267.00
2018-12-25T11:27:29.865Z,102274.00
2018-12-25T11:29:57.686Z,102270.00
2018-12-25T11:32:25.511Z,102260.00
2018-12-25T11:34:53.259Z,102261.00
2018-12-25T11:37:21.068Z,102250.00
2018-12-25T11:39:49.763Z,102243.00
2018-12-25T11:42:17.684Z,102242.00
2018-12-25T11:44:45.539Z,102247.00
2018-12-25T11:47:13.381Z,102250.00
2018-12-25T11:49:41.181Z,102239.00
2018-12-25T11:52:09.064Z,102245.00
2018-12-25T11:54:37.010Z,102248.00
2018-12-25T11:57:04.841Z,102252.00
2018-12-25T11:59:32.728Z,102238.00
2018-12-25T12:02:00.583Z,102250.00
2018-12-25T12:04:28.455Z,102250.00
2018-12-25T12:06:56.766Z,102262.00
2018-12-25T12:09:24.617Z,102261.00
2018-12-25T12:11:52.583Z,102261.00
2018-12-25T12:14:20.450Z,102266.00
2018-12-25T12:16:48.403Z,102263.00
2018-12-25T12:19:16.847Z,102260.00
2018-12-25T12:21:44.692Z,102264.00
2018-12-25T12:24:12.540Z,102262.00
2018-12-25T12:26:40.432Z,102265.00
2018-12-25T12:29:08.285Z,102270.00
2018-12-25T12:31:36.192Z,102270.00
2018-12-25T12:34:03.975Z,102275.00
2018-12-25T12:36:31.774Z,102266.00
2018-12-25T12:38:59.594Z,102262.00
2018-12-25T12:41:27.539Z,102259.00
2018-12-25T12:43:55.407Z,102268.00
2018-12-25T12:46:23.220Z,102271.00
2018-12-25T12:48:51.084Z,102268.00
2018-12-25T12:51:18.902Z,102275.00
2018-12-25T12:53:46.802Z,102268.00
2018-12-25T12:56:14.591Z,102274.00
2018-12-25T12:58:42.454Z,102279.00
2018-12-25T13:01:10.414Z,102276.00
2018-12-25T13:03:38.392Z,102267.00
2018-12-25T13:06:06.372Z,102277.00
2018-12-25T13:08:34.162Z,102284.00
2018-12-25T13:11:02.039Z,102277.00
2018-12-25T13:13:29.958Z,102279.00
2018-12-25T13:15:57.868Z,102293.00
2018-12-25T13:18:28.526Z,102284.00
2018-12-25T13:20:57.911Z,102289.00
2018-12-25T13:23:25.950Z,102296.00
2018-12-25T13:25:53.913Z,102294.00
2018-12-25T13:28:21.884Z,102297.00
2018-12-25T13:30:49.832Z,102296.00
2018-12-25T13:33:17.792Z,102296.00
2018-12-25T13:35:45.598Z,102307.00
2018-12-25T13:38:13.460Z,102306.00
2018-12-25T13:40:41.321Z,102302.00
2018-12-25T13:43:09.310Z,102301.00
2018-12-25T13:45:37.137Z,102293.00
2018-12-25T13:48:05.015Z,102288.00
2018-12-25T13:50:32.807Z,102304.00
2018-12-25T13:53:03.014Z,102306.00
2018-12-25T13:55:30.349Z,102312.00
2018-12-25T13:57:58.238Z,102310.00
2018-12-25T14:00:26.239Z,102311.00
2018-12-25T14:02:54.067Z,102307.00
2018-12-25T14:05:21.869Z,102228.00
2018-12-25T14:07:49.809Z,102332.00
2018-12-25T14:10:17.606Z,102311.00
2018-12-25T14:12:45.565Z,102314.00
2018-12-25T14:15:13.514Z,102321.00
2018-12-25T14:17:41.386Z,102319.00
2018-12-25T14:20:09.362Z,102321.00
2018-12-25T14:22:37.205Z,102326.00
2018-12-25T14:25:05.790Z,102329.00
2018-12-25T14:27:33.545Z,102325.00
2018-12-25T14:30:01.326Z,102329.00
2018-12-25T14:32:29.193Z,102326.00
2018-12-25T14:34:57.194Z,102329.00
2018-12-25T14:37:25.031Z,102329.00
2018-12-25T14:39:52.984Z,102337.00
2018-12-25T14:42:20.781Z,102328.00
2018-12-25T14:44:48.904Z,102336.00
2018-12-25T14:47:17.017Z,102330.00
2018-12-25T14:49:44.970Z,102328.00
2018-12-25T14:52:12.814Z,102332.00
2018-12-25T14:54:40.657Z,102325.00
2018-12-25T14:57:08.655Z,102325.00
2018-12-25T14:59:36.564Z,102329.00
2018-12-25T15:02:04.481Z,102322.00
2018-12-25T15:04:32.395Z,102317.00
2018-12-25T15:07:00.213Z,102337.00
2018-12-25T15:09:28.185Z,102332.00
2018-12-25T15:11:56.130Z,102336.00
2018-12-25T15:14:24.032Z,102328.00
2018-12-25T15:16:51.896Z,102334.00
2018-12-25T15:19:19.812Z,102330.00
2018-12-25T15:21:47.652Z,102338.00
2018-12-25T15:24:15.518Z,102333.00
2018-12-25T15:26:43.492Z,102327.00
2018-12-25T15:29:11.355Z,102334.00
2018-12-25T15:31:39.154Z,102322.00
2018-12-25T15:34:07.069Z,102327.00
2018-12-25T15:36:35.246Z,102327.00
2018-12-25T15:39:07.389Z,102069.00
2018-12-25T15:41:35.224Z,102329.00
2018-12-25T15:44:03.095Z,102333.00
2018-12-25T15:46:30.923Z,102336.00
2018-12-25T15:48:58.805Z,102321.00
2018-12-25T15:51:26.679Z,102322.00
2018-12-25T15:53:54.526Z,102321.00
2018-12-25T15:56:22.376Z,102336.00
2018-12-25T15:58:50.320Z,102324.00
2018-12-25T16:01:18.116Z,102332.00
2018-12-25T16:03:45.990Z,102337.00
2018-12-25T16:06:13.915Z,102336.00
2018-12-25T16:08:41.800Z,102329.00
2018-12-25T16:11:09.658Z,102327.00
2018-12-25T16:13:39.206Z,102340.00
2018-12-25T16:16:07.138Z,102345.00
2018-12-25T16:18:35.184Z,102339.00
2018-12-25T16:21:03.083Z,102346.00
2018-12-25T16:23:30.982Z,102346.00
2018-12-25T16:25:58.948Z,102349.00
2018-12-25T16:28:26.864Z,102346.00
2018-12-25T16:30:54.708Z,102344.00
2018-12-25T16:33:22.680Z,102343.00
2018-12-25T16:35:50.744Z,102348.00
2018-12-25T16:38:18.565Z,102351.00
2018-12-25T16:40:46.417Z,102351.00
2018-12-25T16:43:14.530Z,102348.00
2018-12-25T16:45:42.506Z,102333.00
2018-12-25T16:48:10.428Z,102344.00
2018-12-25T16:50:40.196Z,102352.00
2018-12-25T16:53:08.051Z,102354.00
2018-12-25T16:55:35.943Z,102349.00
2018-12-25T16:58:03.813Z,102347.00
2018-12-25T17:00:32.234Z,102346.00
2018-12-25T17:03:00.108Z,102347.00
2018-12-25T17:05:28.029Z,102337.00
2018-12-25T17:07:57.443Z,102341.00
2018-12-25T17:10:25.426Z,102332.00
2018-12-25T17:12:53.350Z,102332.00
2018-12-25T17:15:21.366Z,102336.00
2018-12-25T17:17:49.241Z,102331.00
2018-12-25T17:20:17.156Z,102335.00
2018-12-25T17:22:44.970Z,102322.00
2018-12-25T17:25:14.167Z,102330.00
2018-12-25T17:27:42.130Z,102340.00
2018-12-25T17:30:09.990Z,102336.00
2018-12-25T17:32:37.869Z,102329.00
2018-12-25T17:35:05.896Z,102328.00
2018-12-25T17:37:33.662Z,102322.00
2018-12-25T17:40:01.568Z,102325.00
2018-12-25T17:42:29.537Z,102332.00
2018-12-25T17:45:23.925Z,102344.00
2018-12-25T17:47:52.276Z,102341.00
2018-12-25T17:50:20.528Z,102334.00
2018-12-25T17:52:51.260Z,102342.00
2018-12-25T17:55:19.290Z,102344.00
2018-12-25T17:57:47.220Z,102345.00
2018-12-25T18:00:15.191Z,102345.00
2018-12-25T18:02:43.139Z,102341.00
2018-12-25T18:05:12.054Z,102342.00
2018-12-25T18:07:40.298Z,102338.00
2018-12-25T18:10:08.307Z,102338.00
2018-12-25T18:12:36.271Z,102341.00
2018-12-25T18:15:08.487Z,102341.00
2018-12-25T18:17:36.423Z,102341.00
2018-12-25T18:20:04.833Z,102333.00
2018-12-25T18:22:32.699Z,102334.00
2018-12-25T18:25:00.597Z,102336.00
2018-12-25T18:27:28.491Z,102330.00
2018-12-25T18:29:56.350Z,102321.00
2018-12-25T18:32:24.433Z,102325.00
2018-12-25T18:34:52.441Z,102315.00
2018-12-25T18:37:20.352Z,102331.00
2018-12-25T18:39:57.236Z,102325.00
2018-12-25T18:42:28.610Z,102334.00
2018-12-25T18:44:59.339Z,102328.00
2018-12-25T18:47:33.263Z,102330.00
2018-12-25T18:50:01.395Z,102344.00
2018-12-25T18:52:29.283Z,102324.00
2018-12-25T18:54:58.493Z,102325.00
2018-12-25T18:57:26.717Z,102324.00
2018-12-25T18:59:54.711Z,102319.00
2018-12-25T19:02:22.908Z,102308.00
2018-12-25T19:04:50.952Z,102308.00
2018-12-25T19:07:18.817Z,102313.00
2018-12-25T19:09:46.748Z,102318.00
2018-12-25T19:12:14.596Z,102330.00
2018-12-25T19:15:22.521Z,102329.00
2018-12-25T19:17:58.928Z,102328.00
2018-12-25T19:20:26.837Z,102328.00
2018-12-25T19:22:54.864Z,102334.00
2018-12-25T19:25:22.838Z,102339.00
2018-12-25T19:27:50.796Z,102334.00
2018-12-25T19:30:23.100Z,102327.00
2018-12-25T19:32:51.403Z,102325.00
2018-12-25T19:35:22.068Z,102331.00
2018-12-25T19:37:50.383Z,102329.00
2018-12-25T19:40:20.492Z,102330.00
2018-12-25T19:42:48.459Z,102328.00
2018-12-25T19:45:16.850Z,102327.00
2018-12-25T19:47:47.500Z,102330.00
2018-12-25T19:50:15.720Z,102318.00
2018-12-25T19:52:43.707Z,102322.00
2018-12-25T19:55:11.690Z,102320.00
2018-12-25T19:57:39.707Z,102321.00
2018-12-25T20:00:10.381Z,102310.00
2018-12-25T20:02:40.324Z,102302.00
2018-12-25T20:06:42.914Z,102300.00
2018-12-25T20:10:13.332Z,102302.00
2018-12-25T20:13:40.298Z,102306.00
2018-12-25T20:17:10.471Z,102294.00
2018-12-25T20:20:42.852Z,102299.00
2018-12-25T20:24:20.655Z,102287.00
2018-12-25T20:28:04.562Z,102283.00
2018-12-25T20:31:45.259Z,102279.00
2018-12-25T20:35:11.748Z,102275.00
2018-12-25T20:38:29.738Z,102276.00
2018-12-25T20:42:18.355Z,102271.00
2018-12-25T20:46:05.588Z,102273.00
2018-12-25T20:49:53.466Z,102270.00
2018-12-25T20:53:55.482Z,102262.00
2018-12-25T20:57:26.585Z,102264.00
2018-12-25T21:01:07.562Z,102267.00
2018-12-25T21:04:44.366Z,102255.00
2018-12-25T21:08:29.213Z,102269.00
2018-12-25T21:12:16.459Z,102250.00
2018-12-25T21:15:56.530Z,102251.00
2018-12-25T21:19:20.406Z,102256.00
2018-12-25T21:22:45.012Z,102250.00
2018-12-25T21:26:08.024Z,102247.00
2018-12-25T21:28:36.128Z,102256.00
2018-12-25T21:31:04.536Z,102200.00
2018-12-25T21:33:33.414Z,102257.00
2018-12-25T21:36:05.167Z,102261.00
2018-12-25T21:38:33.506Z,102258.00
2018-12-25T21:41:03.982Z,102251.00
2018-12-25T21:43:35.144Z,102259.00
2018-12-25T21:46:03.632Z,102261.00
2018-12-25T21:48:32.396Z,102259.00
2018-12-25T21:51:00.944Z,102257.00
2018-12-25T21:53:32.013Z,102257.00
2018-12-25T21:56:00.738Z,102262.00
2018-12-25T21:58:30.532Z,102263.00
2018-12-25T22:00:58.966Z,102269.00
2018-12-25T22:03:30.306Z,102269.00
2018-12-25T22:05:58.338Z,102272.00
2018-12-25T22:08:26.304Z,102270.00
2018-12-25T22:10:57.628Z,102272.00
2018-12-25T22:13:28.591Z,102273.00
2018-12-25T22:15:59.032Z,102273.00
2018-12-25T22:18:26.898Z,102252.00
2018-12-25T22:20:55.273Z,102249.00
2018-12-25T22:23:23.450Z,102246.00
2018-12-25T22:25:51.695Z,102261.00
2018-12-25T22:28:22.435Z,102242.00
2018-12-25T22:30:50.423Z,102236.00
2018-12-25T22:33:20.845Z,102235.00
2018-12-25T22:35:51.823Z,101909.00
2018-12-25T22:38:19.836Z,102225.00
2018-12-25T22:40:48.654Z,102225.00
2018-12-25T22:43:16.534Z,102220.00
2018-12-25T22:45:44.616Z,102220.00
2018-12-25T22:48:12.703Z,102225.00
2018-12-25T22:50:43.887Z,102214.00
2018-12-25T22:53:11.946Z,102211.00
2018-12-25T22:55:39.982Z,102198.00
2018-12-25T22:58:10.972Z,102214.00
2018-12-25T23:00:39.446Z,102203.00
2018-12-25T23:03:07.390Z,102201.00
2018-12-25T23:05:37.427Z,102203.00
2018-12-25T23:08:06.140Z,102212.00
2018-12-25T23:10:34.154Z,102207.00
2018-12-25T23:13:05.090Z,102205.00
2018-12-25T23:15:32.910Z,102210.00
2018-12-25T23:18:00.821Z,102207.00
2018-12-25T23:20:29.156Z,102200.00
2018-12-25T23:22:57.114Z,102194.00
2018-12-25T23:25:24.945Z,102203.00
2018-12-25T23:27:52.955Z,102199.00
2018-12-25T23:30:20.798Z,102197.00
2018-12-25T23:33:02.027Z,102199.00
2018-12-25T23:35:29.920Z,102200.00
2018-12-25T23:37:57.966Z,102204.00
2018-12-25T23:40:45.488Z,102201.00
2018-12-25T23:43:33.019Z,102199.00
2018-12-25T23:46:00.836Z,102202.00
2018-12-25T23:48:48.545Z,102211.00
2018-12-25T23:51:16.430Z,102201.00
2018-12-25T23:53:44.351Z,102217.00
2018-12-25T23:56:12.147Z,102209.00
2018-12-25T23:58:59.613Z,102122.00
